sensor_id;sensor_type;location;lat;lon;timestamp;P1;durP1;ratioP1;P2;durP2;ratioP2
30036;SDS011;36325;51.512;-0.382;2023-03-11T00:00:53;25.95;;;8.52;;
30036;SDS011;36325;51.512;-0.382;2023-03-11T00:03:21;29.63;;;8.88;;
30036;SDS011;36325;51.512;-0.382;2023-03-11T00:05:50;20.35;;;7.93;;
30036;SDS011;36325;51.512;-0.382;2023-03-11T00:08:20;19.92;;;8.57;;
30036;SDS011;36325;51.512;-0.382;2023-03-11T00:10:51;17.33;;;8.13;;
30036;SDS011;36325;51.512;-0.382;2023-03-11T00:13:24;17.67;;;8.13;;
30036;SDS011;36325;51.512;-0.382;2023-03-11T00:15:54;32.97;;;10.15;;
30036;SDS011;36325;51.512;-0.382;2023-03-11T00:18:22;18.02;;;9.43;;
30036;SDS011;36325;51.512;-0.382;2023-03-11T00:20:54;28.23;;;10.32;;
30036;SDS011;36325;51.512;-0.382;2023-03-11T00:23:22;20.52;;;9.00;;
30036;SDS011;36325;51.512;-0.382;2023-03-11T00:25:50;24.67;;;9.35;;
30036;SDS011;36325;51.512;-0.382;2023-03-11T00:28:18;20.38;;;8.88;;
30036;SDS011;36325;51.512;-0.382;2023-03-11T00:30:47;22.42;;;10.77;;
30036;SDS011;36325;51.512;-0.382;2023-03-11T00:33:15;19.67;;;9.23;;
30036;SDS011;36325;51.512;-0.382;2023-03-11T00:35:42;29.05;;;9.38;;
30036;SDS011;36325;51.512;-0.382;2023-03-11T00:38:12;23.35;;;8.73;;
30036;SDS011;36325;51.512;-0.382;2023-03-11T00:40:41;26.38;;;8.88;;
30036;SDS011;36325;51.512;-0.382;2023-03-11T00:43:10;24.67;;;9.05;;
30036;SDS011;36325;51.512;-0.382;2023-03-11T00:45:38;29.02;;;9.30;;
30036;SDS011;36325;51.512;-0.382;2023-03-11T00:48:05;23.38;;;9.82;;
30036;SDS011;36325;51.512;-0.382;2023-03-11T00:50:34;20.13;;;9.20;;
30036;SDS011;36325;51.512;-0.382;2023-03-11T00:53:03;22.65;;;9.70;;
30036;SDS011;36325;51.512;-0.382;2023-03-11T00:55:31;24.30;;;9.52;;
30036;SDS011;36325;51.512;-0.382;2023-03-11T00:58:04;22.45;;;9.38;;
30036;SDS011;36325;51.512;-0.382;2023-03-11T01:00:42;26.35;;;10.65;;
30036;SDS011;36325;51.512;-0.382;2023-03-11T01:03:09;31.90;;;13.32;;
30036;SDS011;36325;51.512;-0.382;2023-03-11T01:05:36;29.98;;;10.77;;
30036;SDS011;36325;51.512;-0.382;2023-03-11T01:08:04;28.33;;;12.27;;
30036;SDS011;36325;51.512;-0.382;2023-03-11T01:10:31;26.40;;;10.50;;
30036;SDS011;36325;51.512;-0.382;2023-03-11T01:13:00;30.50;;;12.85;;
30036;SDS011;36325;51.512;-0.382;2023-03-11T01:15:32;22.75;;;10.30;;
30036;SDS011;36325;51.512;-0.382;2023-03-11T01:18:02;26.10;;;9.88;;
30036;SDS011;36325;51.512;-0.382;2023-03-11T01:20:32;30.33;;;10.70;;
30036;SDS011;36325;51.512;-0.382;2023-03-11T01:23:00;27.60;;;11.98;;
30036;SDS011;36325;51.512;-0.382;2023-03-11T01:25:27;26.70;;;12.30;;
30036;SDS011;36325;51.512;-0.382;2023-03-11T01:27:56;36.72;;;13.10;;
30036;SDS011;36325;51.512;-0.382;2023-03-11T01:30:24;30.63;;;12.65;;
30036;SDS011;36325;51.512;-0.382;2023-03-11T01:32:53;23.55;;;11.35;;
30036;SDS011;36325;51.512;-0.382;2023-03-11T01:35:22;25.58;;;11.95;;
30036;SDS011;36325;51.512;-0.382;2023-03-11T01:37:52;33.47;;;11.70;;
30036;SDS011;36325;51.512;-0.382;2023-03-11T01:43:04;25.55;;;12.27;;
30036;SDS011;36325;51.512;-0.382;2023-03-11T01:48:28;26.58;;;12.93;;
30036;SDS011;36325;51.512;-0.382;2023-03-11T01:50:56;28.27;;;10.95;;
30036;SDS011;36325;51.512;-0.382;2023-03-11T01:53:24;26.63;;;10.52;;
30036;SDS011;36325;51.512;-0.382;2023-03-11T01:55:51;25.73;;;10.25;;
30036;SDS011;36325;51.512;-0.382;2023-03-11T01:58:23;26.40;;;10.23;;
30036;SDS011;36325;51.512;-0.382;2023-03-11T02:00:52;24.80;;;9.10;;
30036;SDS011;36325;51.512;-0.382;2023-03-11T02:03:22;34.08;;;10.10;;
30036;SDS011;36325;51.512;-0.382;2023-03-11T02:05:59;20.60;;;9.05;;
30036;SDS011;36325;51.512;-0.382;2023-03-11T02:08:28;22.90;;;8.88;;
30036;SDS011;36325;51.512;-0.382;2023-03-11T02:11:02;22.98;;;7.50;;
30036;SDS011;36325;51.512;-0.382;2023-03-11T02:13:32;21.67;;;6.97;;
30036;SDS011;36325;51.512;-0.382;2023-03-11T02:16:02;13.55;;;6.43;;
30036;SDS011;36325;51.512;-0.382;2023-03-11T02:18:30;20.83;;;6.85;;
30036;SDS011;36325;51.512;-0.382;2023-03-11T02:26:48;24.85;;;5.55;;
30036;SDS011;36325;51.512;-0.382;2023-03-11T02:29:25;12.57;;;5.75;;
30036;SDS011;36325;51.512;-0.382;2023-03-11T02:31:54;32.33;;;6.43;;
30036;SDS011;36325;51.512;-0.382;2023-03-11T02:34:28;15.80;;;6.53;;
30036;SDS011;36325;51.512;-0.382;2023-03-11T02:36:59;17.65;;;6.00;;
30036;SDS011;36325;51.512;-0.382;2023-03-11T02:39:31;19.77;;;6.80;;
30036;SDS011;36325;51.512;-0.382;2023-03-11T02:41:59;19.67;;;6.95;;
30036;SDS011;36325;51.512;-0.382;2023-03-11T02:44:31;25.67;;;8.85;;
30036;SDS011;36325;51.512;-0.382;2023-03-11T02:47:00;25.50;;;8.93;;
30036;SDS011;36325;51.512;-0.382;2023-03-11T02:49:28;22.58;;;8.55;;
30036;SDS011;36325;51.512;-0.382;2023-03-11T02:51:56;20.85;;;7.82;;
30036;SDS011;36325;51.512;-0.382;2023-03-11T02:54:23;21.80;;;7.50;;
30036;SDS011;36325;51.512;-0.382;2023-03-11T02:56:51;19.38;;;8.48;;
30036;SDS011;36325;51.512;-0.382;2023-03-11T02:59:18;27.50;;;9.18;;
30036;SDS011;36325;51.512;-0.382;2023-03-11T03:01:45;17.88;;;8.23;;
30036;SDS011;36325;51.512;-0.382;2023-03-11T03:04:13;28.50;;;10.23;;
30036;SDS011;36325;51.512;-0.382;2023-03-11T03:06:40;20.67;;;9.43;;
30036;SDS011;36325;51.512;-0.382;2023-03-11T03:09:08;31.88;;;10.48;;
30036;SDS011;36325;51.512;-0.382;2023-03-11T03:11:35;16.95;;;8.02;;
30036;SDS011;36325;51.512;-0.382;2023-03-11T03:14:03;25.50;;;11.32;;
30036;SDS011;36325;51.512;-0.382;2023-03-11T03:16:30;20.98;;;9.05;;
30036;SDS011;36325;51.512;-0.382;2023-03-11T03:18:57;23.50;;;9.23;;
30036;SDS011;36325;51.512;-0.382;2023-03-11T03:21:25;31.73;;;9.73;;
30036;SDS011;36325;51.512;-0.382;2023-03-11T03:23:53;25.77;;;9.65;;
30036;SDS011;36325;51.512;-0.382;2023-03-11T03:26:21;28.45;;;9.90;;
30036;SDS011;36325;51.512;-0.382;2023-03-11T03:28:49;22.85;;;9.75;;
30036;SDS011;36325;51.512;-0.382;2023-03-11T03:31:16;23.75;;;9.43;;
30036;SDS011;36325;51.512;-0.382;2023-03-11T03:33:44;17.85;;;10.43;;
30036;SDS011;36325;51.512;-0.382;2023-03-11T03:36:12;25.02;;;10.68;;
30036;SDS011;36325;51.512;-0.382;2023-03-11T03:38:43;30.05;;;11.50;;
30036;SDS011;36325;51.512;-0.382;2023-03-11T03:41:14;28.63;;;11.27;;
30036;SDS011;36325;51.512;-0.382;2023-03-11T03:43:43;23.45;;;9.65;;
30036;SDS011;36325;51.512;-0.382;2023-03-11T03:46:11;23.42;;;9.55;;
30036;SDS011;36325;51.512;-0.382;2023-03-11T03:48:42;22.60;;;10.00;;
30036;SDS011;36325;51.512;-0.382;2023-03-11T03:51:11;27.83;;;11.95;;
30036;SDS011;36325;51.512;-0.382;2023-03-11T03:53:55;31.73;;;10.95;;
30036;SDS011;36325;51.512;-0.382;2023-03-11T03:56:24;42.60;;;11.85;;
30036;SDS011;36325;51.512;-0.382;2023-03-11T03:58:52;31.85;;;12.57;;
30036;SDS011;36325;51.512;-0.382;2023-03-11T04:01:21;46.55;;;14.23;;
30036;SDS011;36325;51.512;-0.382;2023-03-11T04:03:48;60.58;;;21.35;;
30036;SDS011;36325;51.512;-0.382;2023-03-11T04:06:20;62.67;;;23.50;;
30036;SDS011;36325;51.512;-0.382;2023-03-11T04:08:54;51.22;;;21.25;;
30036;SDS011;36325;51.512;-0.382;2023-03-11T04:11:27;24.33;;;11.35;;
30036;SDS011;36325;51.512;-0.382;2023-03-11T04:13:55;26.98;;;11.20;;
30036;SDS011;36325;51.512;-0.382;2023-03-11T04:16:23;35.90;;;13.00;;
30036;SDS011;36325;51.512;-0.382;2023-03-11T04:18:57;31.13;;;12.13;;
30036;SDS011;36325;51.512;-0.382;2023-03-11T04:21:24;46.35;;;17.27;;
30036;SDS011;36325;51.512;-0.382;2023-03-11T04:23:53;33.28;;;14.60;;
30036;SDS011;36325;51.512;-0.382;2023-03-11T04:26:26;47.35;;;15.23;;
30036;SDS011;36325;51.512;-0.382;2023-03-11T04:28:54;33.58;;;13.02;;
30036;SDS011;36325;51.512;-0.382;2023-03-11T04:31:23;32.30;;;13.88;;
30036;SDS011;36325;51.512;-0.382;2023-03-11T04:33:50;28.63;;;12.07;;
30036;SDS011;36325;51.512;-0.382;2023-03-11T04:36:18;26.88;;;11.25;;
30036;SDS011;36325;51.512;-0.382;2023-03-11T04:38:45;24.40;;;10.90;;
30036;SDS011;36325;51.512;-0.382;2023-03-11T04:41:13;21.60;;;10.07;;
30036;SDS011;36325;51.512;-0.382;2023-03-11T04:43:42;26.02;;;9.65;;
30036;SDS011;36325;51.512;-0.382;2023-03-11T04:46:09;23.80;;;8.80;;
30036;SDS011;36325;51.512;-0.382;2023-03-11T04:48:38;23.42;;;9.13;;
30036;SDS011;36325;51.512;-0.382;2023-03-11T04:51:06;23.13;;;9.35;;
30036;SDS011;36325;51.512;-0.382;2023-03-11T04:53:34;19.17;;;8.48;;
30036;SDS011;36325;51.512;-0.382;2023-03-11T04:56:01;24.33;;;9.18;;
30036;SDS011;36325;51.512;-0.382;2023-03-11T04:58:30;23.67;;;8.30;;
30036;SDS011;36325;51.512;-0.382;2023-03-11T05:00:57;22.05;;;8.50;;
30036;SDS011;36325;51.512;-0.382;2023-03-11T05:03:25;21.77;;;8.35;;
30036;SDS011;36325;51.512;-0.382;2023-03-11T05:05:52;23.73;;;8.98;;
30036;SDS011;36325;51.512;-0.382;2023-03-11T05:08:22;21.75;;;7.53;;
30036;SDS011;36325;51.512;-0.382;2023-03-11T05:10:51;17.83;;;8.25;;
30036;SDS011;36325;51.512;-0.382;2023-03-11T05:13:20;19.27;;;8.18;;
30036;SDS011;36325;51.512;-0.382;2023-03-11T05:15:49;21.58;;;8.30;;
30036;SDS011;36325;51.512;-0.382;2023-03-11T05:18:17;21.30;;;7.82;;
30036;SDS011;36325;51.512;-0.382;2023-03-11T05:20:46;20.10;;;7.68;;
30036;SDS011;36325;51.512;-0.382;2023-03-11T05:23:18;17.67;;;7.30;;
30036;SDS011;36325;51.512;-0.382;2023-03-11T05:25:45;14.50;;;6.88;;
30036;SDS011;36325;51.512;-0.382;2023-03-11T05:28:13;23.75;;;8.27;;
30036;SDS011;36325;51.512;-0.382;2023-03-11T05:30:47;27.73;;;9.40;;
30036;SDS011;36325;51.512;-0.382;2023-03-11T05:33:15;23.17;;;9.88;;
30036;SDS011;36325;51.512;-0.382;2023-03-11T05:35:43;19.70;;;8.32;;
30036;SDS011;36325;51.512;-0.382;2023-03-11T05:38:10;21.42;;;7.20;;
30036;SDS011;36325;51.512;-0.382;2023-03-11T05:40:38;20.38;;;7.90;;
30036;SDS011;36325;51.512;-0.382;2023-03-11T05:43:05;18.13;;;8.38;;
30036;SDS011;36325;51.512;-0.382;2023-03-11T05:45:36;18.65;;;8.35;;
30036;SDS011;36325;51.512;-0.382;2023-03-11T05:48:05;17.90;;;8.18;;
30036;SDS011;36325;51.512;-0.382;2023-03-11T05:50:34;16.20;;;8.15;;
30036;SDS011;36325;51.512;-0.382;2023-03-11T05:53:02;20.02;;;8.60;;
30036;SDS011;36325;51.512;-0.382;2023-03-11T05:55:30;24.60;;;7.68;;
30036;SDS011;36325;51.512;-0.382;2023-03-11T05:57:58;16.83;;;7.20;;
30036;SDS011;36325;51.512;-0.382;2023-03-11T06:00:26;20.15;;;8.80;;
30036;SDS011;36325;51.512;-0.382;2023-03-11T06:02:58;20.65;;;8.88;;
30036;SDS011;36325;51.512;-0.382;2023-03-11T06:05:25;21.40;;;9.60;;
30036;SDS011;36325;51.512;-0.382;2023-03-11T06:07:54;18.38;;;8.05;;
30036;SDS011;36325;51.512;-0.382;2023-03-11T06:10:22;16.17;;;8.02;;
30036;SDS011;36325;51.512;-0.382;2023-03-11T06:12:50;18.13;;;8.45;;
30036;SDS011;36325;51.512;-0.382;2023-03-11T06:15:39;18.13;;;9.02;;
30036;SDS011;36325;51.512;-0.382;2023-03-11T06:18:07;23.58;;;10.02;;
30036;SDS011;36325;51.512;-0.382;2023-03-11T06:20:35;22.27;;;8.60;;
30036;SDS011;36325;51.512;-0.382;2023-03-11T06:23:03;19.20;;;9.13;;
30036;SDS011;36325;51.512;-0.382;2023-03-11T06:25:31;20.15;;;8.30;;
30036;SDS011;36325;51.512;-0.382;2023-03-11T06:27:58;24.95;;;7.68;;
30036;SDS011;36325;51.512;-0.382;2023-03-11T06:30:26;30.98;;;8.27;;
30036;SDS011;36325;51.512;-0.382;2023-03-11T06:33:01;26.08;;;8.57;;
30036;SDS011;36325;51.512;-0.382;2023-03-11T06:35:29;22.23;;;9.38;;
30036;SDS011;36325;51.512;-0.382;2023-03-11T06:37:56;18.38;;;8.25;;
30036;SDS011;36325;51.512;-0.382;2023-03-11T06:40:23;22.67;;;8.23;;
30036;SDS011;36325;51.512;-0.382;2023-03-11T06:42:51;22.75;;;9.60;;
30036;SDS011;36325;51.512;-0.382;2023-03-11T06:45:21;25.33;;;9.07;;
30036;SDS011;36325;51.512;-0.382;2023-03-11T06:47:49;26.30;;;8.85;;
30036;SDS011;36325;51.512;-0.382;2023-03-11T06:50:16;17.42;;;8.27;;
30036;SDS011;36325;51.512;-0.382;2023-03-11T06:52:44;20.45;;;8.05;;
30036;SDS011;36325;51.512;-0.382;2023-03-11T06:55:11;20.33;;;8.65;;
30036;SDS011;36325;51.512;-0.382;2023-03-11T06:57:38;22.80;;;8.85;;
30036;SDS011;36325;51.512;-0.382;2023-03-11T07:00:08;25.13;;;8.27;;
30036;SDS011;36325;51.512;-0.382;2023-03-11T07:02:41;18.75;;;8.65;;
30036;SDS011;36325;51.512;-0.382;2023-03-11T07:05:09;15.27;;;8.65;;
30036;SDS011;36325;51.512;-0.382;2023-03-11T07:07:38;17.85;;;9.30;;
30036;SDS011;36325;51.512;-0.382;2023-03-11T07:10:06;22.85;;;8.30;;
30036;SDS011;36325;51.512;-0.382;2023-03-11T07:12:34;15.75;;;8.90;;
30036;SDS011;36325;51.512;-0.382;2023-03-11T07:15:01;17.38;;;8.05;;
30036;SDS011;36325;51.512;-0.382;2023-03-11T07:17:30;20.58;;;8.35;;
30036;SDS011;36325;51.512;-0.382;2023-03-11T07:19:58;20.27;;;8.45;;
30036;SDS011;36325;51.512;-0.382;2023-03-11T07:22:25;16.35;;;8.52;;
30036;SDS011;36325;51.512;-0.382;2023-03-11T07:24:53;20.90;;;8.73;;
30036;SDS011;36325;51.512;-0.382;2023-03-11T07:27:20;23.55;;;8.48;;
30036;SDS011;36325;51.512;-0.382;2023-03-11T07:29:48;18.50;;;8.10;;
30036;SDS011;36325;51.512;-0.382;2023-03-11T07:32:17;16.60;;;8.27;;
30036;SDS011;36325;51.512;-0.382;2023-03-11T07:34:44;24.42;;;9.13;;
30036;SDS011;36325;51.512;-0.382;2023-03-11T07:37:12;20.80;;;8.75;;
30036;SDS011;36325;51.512;-0.382;2023-03-11T07:39:39;23.23;;;9.07;;
30036;SDS011;36325;51.512;-0.382;2023-03-11T07:42:06;23.70;;;9.38;;
30036;SDS011;36325;51.512;-0.382;2023-03-11T07:44:34;25.05;;;9.90;;
30036;SDS011;36325;51.512;-0.382;2023-03-11T07:47:02;27.55;;;9.82;;
30036;SDS011;36325;51.512;-0.382;2023-03-11T07:49:30;19.83;;;10.05;;
30036;SDS011;36325;51.512;-0.382;2023-03-11T07:51:58;24.95;;;8.30;;
30036;SDS011;36325;51.512;-0.382;2023-03-11T07:54:25;25.13;;;9.00;;
30036;SDS011;36325;51.512;-0.382;2023-03-11T07:56:53;17.60;;;7.20;;
30036;SDS011;36325;51.512;-0.382;2023-03-11T07:59:20;14.25;;;6.00;;
30036;SDS011;36325;51.512;-0.382;2023-03-11T08:01:47;21.45;;;5.03;;
30036;SDS011;36325;51.512;-0.382;2023-03-11T08:04:16;12.07;;;4.97;;
30036;SDS011;36325;51.512;-0.382;2023-03-11T08:06:44;18.33;;;4.85;;
30036;SDS011;36325;51.512;-0.382;2023-03-11T08:09:12;15.02;;;4.20;;
30036;SDS011;36325;51.512;-0.382;2023-03-11T08:11:40;16.90;;;4.93;;
30036;SDS011;36325;51.512;-0.382;2023-03-11T08:14:08;15.93;;;5.25;;
30036;SDS011;36325;51.512;-0.382;2023-03-11T08:16:35;12.23;;;5.22;;
30036;SDS011;36325;51.512;-0.382;2023-03-11T08:19:04;18.80;;;5.20;;
30036;SDS011;36325;51.512;-0.382;2023-03-11T08:21:31;12.77;;;4.40;;
30036;SDS011;36325;51.512;-0.382;2023-03-11T08:23:59;16.08;;;4.75;;
30036;SDS011;36325;51.512;-0.382;2023-03-11T08:26:27;16.50;;;3.90;;
30036;SDS011;36325;51.512;-0.382;2023-03-11T08:28:56;6.60;;;2.58;;
30036;SDS011;36325;51.512;-0.382;2023-03-11T08:31:27;9.20;;;3.10;;
30036;SDS011;36325;51.512;-0.382;2023-03-11T08:33:57;8.88;;;2.65;;
30036;SDS011;36325;51.512;-0.382;2023-03-11T08:36:29;11.65;;;3.22;;
30036;SDS011;36325;51.512;-0.382;2023-03-11T08:38:57;12.65;;;3.22;;
30036;SDS011;36325;51.512;-0.382;2023-03-11T08:41:25;17.85;;;2.67;;
30036;SDS011;36325;51.512;-0.382;2023-03-11T08:43:54;15.02;;;2.10;;
30036;SDS011;36325;51.512;-0.382;2023-03-11T08:46:24;12.05;;;3.45;;
30036;SDS011;36325;51.512;-0.382;2023-03-11T08:48:53;12.30;;;2.10;;
30036;SDS011;36325;51.512;-0.382;2023-03-11T08:51:22;6.75;;;2.25;;
30036;SDS011;36325;51.512;-0.382;2023-03-11T08:53:51;12.07;;;2.72;;
30036;SDS011;36325;51.512;-0.382;2023-03-11T08:56:19;13.85;;;2.70;;
30036;SDS011;36325;51.512;-0.382;2023-03-11T08:58:47;13.88;;;2.38;;
30036;SDS011;36325;51.512;-0.382;2023-03-11T09:01:16;6.35;;;1.98;;
30036;SDS011;36325;51.512;-0.382;2023-03-11T09:03:45;10.52;;;2.55;;
30036;SDS011;36325;51.512;-0.382;2023-03-11T09:06:13;5.00;;;1.80;;
30036;SDS011;36325;51.512;-0.382;2023-03-11T09:08:43;8.02;;;2.55;;
30036;SDS011;36325;51.512;-0.382;2023-03-11T09:11:11;3.95;;;1.27;;
30036;SDS011;36325;51.512;-0.382;2023-03-11T09:13:41;5.70;;;1.55;;
30036;SDS011;36325;51.512;-0.382;2023-03-11T09:16:12;5.32;;;1.73;;
30036;SDS011;36325;51.512;-0.382;2023-03-11T09:18:44;8.68;;;1.80;;
30036;SDS011;36325;51.512;-0.382;2023-03-11T09:21:11;5.75;;;2.10;;
30036;SDS011;36325;51.512;-0.382;2023-03-11T09:23:38;6.35;;;2.63;;
30036;SDS011;36325;51.512;-0.382;2023-03-11T09:26:09;9.68;;;2.25;;
30036;SDS011;36325;51.512;-0.382;2023-03-11T09:28:37;7.90;;;2.05;;
30036;SDS011;36325;51.512;-0.382;2023-03-11T09:31:05;3.97;;;2.08;;
30036;SDS011;36325;51.512;-0.382;2023-03-11T09:33:39;5.28;;;1.52;;
30036;SDS011;36325;51.512;-0.382;2023-03-11T09:36:10;7.13;;;2.20;;
30036;SDS011;36325;51.512;-0.382;2023-03-11T09:38:40;11.15;;;2.00;;
30036;SDS011;36325;51.512;-0.382;2023-03-11T09:41:30;11.88;;;2.33;;
30036;SDS011;36325;51.512;-0.382;2023-03-11T09:44:29;14.63;;;2.67;;
30036;SDS011;36325;51.512;-0.382;2023-03-11T09:52:23;5.13;;;1.98;;
30036;SDS011;36325;51.512;-0.382;2023-03-11T09:54:52;14.50;;;3.78;;
30036;SDS011;36325;51.512;-0.382;2023-03-11T09:57:24;6.68;;;2.45;;
30036;SDS011;36325;51.512;-0.382;2023-03-11T09:59:57;7.70;;;1.80;;
30036;SDS011;36325;51.512;-0.382;2023-03-11T10:02:37;3.97;;;1.75;;
30036;SDS011;36325;51.512;-0.382;2023-03-11T10:05:16;13.03;;;2.60;;
30036;SDS011;36325;51.512;-0.382;2023-03-11T10:08:00;8.60;;;1.70;;
30036;SDS011;36325;51.512;-0.382;2023-03-11T10:10:38;12.45;;;2.08;;
30036;SDS011;36325;51.512;-0.382;2023-03-11T10:13:15;11.48;;;2.70;;
30036;SDS011;36325;51.512;-0.382;2023-03-11T10:16:52;5.53;;;1.33;;
30036;SDS011;36325;51.512;-0.382;2023-03-11T10:22:30;21.02;;;4.10;;
30036;SDS011;36325;51.512;-0.382;2023-03-11T10:27:34;8.82;;;1.80;;
30036;SDS011;36325;51.512;-0.382;2023-03-11T10:30:08;5.80;;;1.60;;
30036;SDS011;36325;51.512;-0.382;2023-03-11T10:32:52;10.63;;;2.13;;
30036;SDS011;36325;51.512;-0.382;2023-03-11T10:35:22;8.15;;;2.35;;
30036;SDS011;36325;51.512;-0.382;2023-03-11T10:38:22;5.82;;;1.80;;
30036;SDS011;36325;51.512;-0.382;2023-03-11T10:40:59;9.52;;;1.85;;
30036;SDS011;36325;51.512;-0.382;2023-03-11T10:43:36;7.70;;;1.77;;
30036;SDS011;36325;51.512;-0.382;2023-03-11T10:46:14;5.05;;;1.45;;
30036;SDS011;36325;51.512;-0.382;2023-03-11T10:48:46;12.52;;;2.00;;
30036;SDS011;36325;51.512;-0.382;2023-03-11T10:51:15;9.48;;;1.80;;
30036;SDS011;36325;51.512;-0.382;2023-03-11T10:53:55;8.55;;;1.75;;
30036;SDS011;36325;51.512;-0.382;2023-03-11T10:58:56;13.65;;;2.15;;
30036;SDS011;36325;51.512;-0.382;2023-03-11T11:01:25;3.08;;;1.20;;
30036;SDS011;36325;51.512;-0.382;2023-03-11T11:03:55;6.38;;;1.85;;
30036;SDS011;36325;51.512;-0.382;2023-03-11T11:06:31;7.20;;;2.25;;
30036;SDS011;36325;51.512;-0.382;2023-03-11T11:09:19;9.63;;;2.28;;
30036;SDS011;36325;51.512;-0.382;2023-03-11T11:14:41;6.80;;;2.50;;
30036;SDS011;36325;51.512;-0.382;2023-03-11T11:17:23;12.20;;;2.80;;
30036;SDS011;36325;51.512;-0.382;2023-03-11T11:19:58;12.93;;;2.22;;
30036;SDS011;36325;51.512;-0.382;2023-03-11T11:25:27;7.80;;;2.10;;
30036;SDS011;36325;51.512;-0.382;2023-03-11T11:27:57;8.57;;;1.88;;
30036;SDS011;36325;51.512;-0.382;2023-03-11T11:30:27;8.25;;;1.73;;
30036;SDS011;36325;51.512;-0.382;2023-03-11T11:32:55;5.90;;;1.80;;
30036;SDS011;36325;51.512;-0.382;2023-03-11T11:35:27;7.88;;;1.60;;
30036;SDS011;36325;51.512;-0.382;2023-03-11T11:37:56;16.05;;;2.25;;
30036;SDS011;36325;51.512;-0.382;2023-03-11T11:40:29;9.90;;;1.52;;
30036;SDS011;36325;51.512;-0.382;2023-03-11T11:43:05;5.43;;;1.33;;
30036;SDS011;36325;51.512;-0.382;2023-03-11T11:50:43;8.30;;;1.67;;
30036;SDS011;36325;51.512;-0.382;2023-03-11T11:53:18;6.82;;;2.08;;
30036;SDS011;36325;51.512;-0.382;2023-03-11T11:55:58;11.63;;;2.42;;
30036;SDS011;36325;51.512;-0.382;2023-03-11T11:58:26;8.68;;;2.08;;
30036;SDS011;36325;51.512;-0.382;2023-03-11T12:00:57;13.85;;;2.67;;
30036;SDS011;36325;51.512;-0.382;2023-03-11T12:06:21;5.28;;;2.03;;
30036;SDS011;36325;51.512;-0.382;2023-03-11T12:11:38;3.75;;;2.15;;
30036;SDS011;36325;51.512;-0.382;2023-03-11T12:16:54;9.95;;;2.28;;
30036;SDS011;36325;51.512;-0.382;2023-03-11T12:19:41;23.52;;;5.15;;
30036;SDS011;36325;51.512;-0.382;2023-03-11T12:27:42;3.90;;;2.65;;
30036;SDS011;36325;51.512;-0.382;2023-03-11T12:30:17;12.88;;;2.70;;
30036;SDS011;36325;51.512;-0.382;2023-03-11T12:32:50;6.10;;;1.65;;
30036;SDS011;36325;51.512;-0.382;2023-03-11T12:35:24;5.82;;;1.90;;
30036;SDS011;36325;51.512;-0.382;2023-03-11T12:37:54;11.93;;;2.25;;
30036;SDS011;36325;51.512;-0.382;2023-03-11T12:46:04;7.38;;;2.30;;
30036;SDS011;36325;51.512;-0.382;2023-03-11T12:48:41;3.78;;;1.20;;
30036;SDS011;36325;51.512;-0.382;2023-03-11T12:53:52;7.25;;;1.65;;
30036;SDS011;36325;51.512;-0.382;2023-03-11T13:04:35;7.60;;;2.00;;
30036;SDS011;36325;51.512;-0.382;2023-03-11T13:07:13;14.05;;;2.05;;
30036;SDS011;36325;51.512;-0.382;2023-03-11T13:12:40;12.75;;;2.85;;
30036;SDS011;36325;51.512;-0.382;2023-03-11T13:25:38;4.72;;;1.30;;
30036;SDS011;36325;51.512;-0.382;2023-03-11T13:31:08;4.78;;;1.60;;
30036;SDS011;36325;51.512;-0.382;2023-03-11T13:41:56;9.80;;;1.38;;
30036;SDS011;36325;51.512;-0.382;2023-03-11T13:44:28;6.93;;;1.35;;
30036;SDS011;36325;51.512;-0.382;2023-03-11T13:47:00;4.72;;;1.45;;
30036;SDS011;36325;51.512;-0.382;2023-03-11T13:49:38;5.22;;;1.60;;
30036;SDS011;36325;51.512;-0.382;2023-03-11T13:55:29;3.63;;;0.90;;
30036;SDS011;36325;51.512;-0.382;2023-03-11T13:57:56;7.28;;;1.85;;
30036;SDS011;36325;51.512;-0.382;2023-03-11T14:00:25;2.67;;;1.35;;
30036;SDS011;36325;51.512;-0.382;2023-03-11T14:03:01;6.22;;;1.88;;
30036;SDS011;36325;51.512;-0.382;2023-03-11T14:05:34;2.80;;;1.10;;
30036;SDS011;36325;51.512;-0.382;2023-03-11T14:08:24;10.15;;;1.33;;
30036;SDS011;36325;51.512;-0.382;2023-03-11T14:10:54;5.80;;;1.42;;
30036;SDS011;36325;51.512;-0.382;2023-03-11T14:13:27;7.88;;;1.42;;
30036;SDS011;36325;51.512;-0.382;2023-03-11T14:16:16;5.30;;;1.27;;
30036;SDS011;36325;51.512;-0.382;2023-03-11T14:18:47;24.13;;;9.10;;
30036;SDS011;36325;51.512;-0.382;2023-03-11T14:21:34;21.58;;;7.68;;
30036;SDS011;36325;51.512;-0.382;2023-03-11T14:24:02;32.10;;;14.60;;
30036;SDS011;36325;51.512;-0.382;2023-03-11T14:26:31;6.97;;;2.45;;
30036;SDS011;36325;51.512;-0.382;2023-03-11T14:29:01;7.00;;;2.05;;
30036;SDS011;36325;51.512;-0.382;2023-03-11T14:31:37;4.63;;;1.40;;
30036;SDS011;36325;51.512;-0.382;2023-03-11T14:36:43;10.05;;;1.60;;
30036;SDS011;36325;51.512;-0.382;2023-03-11T14:39:31;6.97;;;1.60;;
30036;SDS011;36325;51.512;-0.382;2023-03-11T14:42:04;8.38;;;2.00;;
30036;SDS011;36325;51.512;-0.382;2023-03-11T14:47:16;6.75;;;1.73;;
30036;SDS011;36325;51.512;-0.382;2023-03-11T14:49:51;7.38;;;1.20;;
30036;SDS011;36325;51.512;-0.382;2023-03-11T14:53:03;4.63;;;1.75;;
30036;SDS011;36325;51.512;-0.382;2023-03-11T14:55:27;5.43;;;1.17;;
30036;SDS011;36325;51.512;-0.382;2023-03-11T14:58:09;5.07;;;1.60;;
30036;SDS011;36325;51.512;-0.382;2023-03-11T15:03:44;6.50;;;1.35;;
30036;SDS011;36325;51.512;-0.382;2023-03-11T15:06:19;5.55;;;1.20;;
30036;SDS011;36325;51.512;-0.382;2023-03-11T15:09:06;8.23;;;1.08;;
30036;SDS011;36325;51.512;-0.382;2023-03-11T15:11:48;7.43;;;1.80;;
30036;SDS011;36325;51.512;-0.382;2023-03-11T15:14:27;4.25;;;1.10;;
30036;SDS011;36325;51.512;-0.382;2023-03-11T15:20:00;3.63;;;0.95;;
30036;SDS011;36325;51.512;-0.382;2023-03-11T15:22:28;8.02;;;1.27;;
30036;SDS011;36325;51.512;-0.382;2023-03-11T15:25:03;4.97;;;1.38;;
30036;SDS011;36325;51.512;-0.382;2023-03-11T15:27:42;6.45;;;1.45;;
30036;SDS011;36325;51.512;-0.382;2023-03-11T15:30:26;4.93;;;1.48;;
30036;SDS011;36325;51.512;-0.382;2023-03-11T15:32:56;4.95;;;1.80;;
30036;SDS011;36325;51.512;-0.382;2023-03-11T15:35:24;5.75;;;1.20;;
30036;SDS011;36325;51.512;-0.382;2023-03-11T15:41:00;5.20;;;2.17;;
30036;SDS011;36325;51.512;-0.382;2023-03-11T15:43:28;7.72;;;2.42;;
30036;SDS011;36325;51.512;-0.382;2023-03-11T15:45:59;2.85;;;1.05;;
30036;SDS011;36325;51.512;-0.382;2023-03-11T15:48:28;5.47;;;1.30;;
30036;SDS011;36325;51.512;-0.382;2023-03-11T15:50:57;3.83;;;1.35;;
30036;SDS011;36325;51.512;-0.382;2023-03-11T15:53:26;2.15;;;1.05;;
30036;SDS011;36325;51.512;-0.382;2023-03-11T15:55:59;5.18;;;1.35;;
30036;SDS011;36325;51.512;-0.382;2023-03-11T15:58:36;4.22;;;1.20;;
30036;SDS011;36325;51.512;-0.382;2023-03-11T16:01:04;4.35;;;1.60;;
30036;SDS011;36325;51.512;-0.382;2023-03-11T16:03:31;11.02;;;1.50;;
30036;SDS011;36325;51.512;-0.382;2023-03-11T16:05:58;5.63;;;1.13;;
30036;SDS011;36325;51.512;-0.382;2023-03-11T16:08:26;4.20;;;1.10;;
30036;SDS011;36325;51.512;-0.382;2023-03-11T16:10:53;3.60;;;1.58;;
30036;SDS011;36325;51.512;-0.382;2023-03-11T16:13:21;4.65;;;1.27;;
30036;SDS011;36325;51.512;-0.382;2023-03-11T16:15:48;6.70;;;1.40;;
30036;SDS011;36325;51.512;-0.382;2023-03-11T16:18:16;5.35;;;1.40;;
30036;SDS011;36325;51.512;-0.382;2023-03-11T16:20:44;3.35;;;1.20;;
30036;SDS011;36325;51.512;-0.382;2023-03-11T16:23:28;3.08;;;1.20;;
30036;SDS011;36325;51.512;-0.382;2023-03-11T16:26:16;4.10;;;0.93;;
30036;SDS011;36325;51.512;-0.382;2023-03-11T16:28:43;3.85;;;1.13;;
30036;SDS011;36325;51.512;-0.382;2023-03-11T16:31:10;7.90;;;1.15;;
30036;SDS011;36325;51.512;-0.382;2023-03-11T16:33:38;4.30;;;0.93;;